createdAt,value
2023-05-05T02:11:20.664Z,0
2023-05-05T02:16:21.482Z,0
2023-05-05T02:21:22.578Z,0
2023-05-05T02:26:23.388Z,0
2023-05-05T02:31:24.582Z,0
2023-05-05T02:36:25.630Z,0
2023-05-05T02:41:26.462Z,0
2023-05-05T02:46:27.308Z,0
2023-05-05T02:51:28.660Z,0
2023-05-05T02:56:29.725Z,0
2023-05-05T03:01:30.858Z,0
2023-05-05T03:06:31.857Z,0
2023-05-05T03:11:33.042Z,0
2023-05-05T03:16:34.013Z,0
2023-05-05T03:21:35.879Z,0
2023-05-05T03:26:36.981Z,0
2023-05-05T03:31:38.067Z,0
2023-05-05T03:36:39.188Z,0
2023-05-05T03:41:40.263Z,0
2023-05-05T03:46:41.095Z,0
2023-05-05T03:51:41.877Z,0
2023-05-05T03:56:42.687Z,0
2023-05-05T04:01:43.496Z,0
2023-05-05T04:06:44.287Z,0
2023-05-05T04:11:45.159Z,0
2023-05-05T04:16:46.041Z,0
2023-05-05T04:21:46.874Z,0
2023-05-05T04:26:47.782Z,0
2023-05-05T04:31:48.718Z,0
2023-05-05T04:36:49.564Z,0
2023-05-05T04:41:50.416Z,0
2023-05-05T04:46:51.352Z,0
2023-05-05T04:51:52.434Z,0
2023-05-05T04:56:53.279Z,0
2023-05-05T05:01:54.166Z,0
2023-05-05T05:06:56.902Z,0
2023-05-05T05:12:02.160Z,0
2023-05-05T05:17:03.032Z,39
2023-05-05T05:22:04.447Z,41.9
2023-05-05T05:27:06.065Z,53.2
2023-05-05T05:32:07.726Z,57.5
2023-05-05T05:37:08.682Z,64.2
2023-05-05T05:42:10.527Z,80.8
2023-05-05T05:47:11.541Z,81.5
2023-05-05T05:52:12.562Z,85.7
2023-05-05T05:57:13.871Z,93
2023-05-05T06:02:14.754Z,80.4
2023-05-05T06:07:18.181Z,72.7
2023-05-05T06:12:19.052Z,93.5
2023-05-05T06:17:21.948Z,121.4
2023-05-05T06:22:22.677Z,104.1
2023-05-05T06:27:23.559Z,82
2023-05-05T06:32:24.447Z,95.5
2023-05-05T06:37:27.096Z,102.6
2023-05-05T06:42:27.966Z,106
2023-05-05T06:47:28.860Z,84.8
2023-05-05T06:52:29.742Z,85.4
2023-05-05T06:57:30.876Z,99.9
2023-05-05T07:02:32.985Z,116.8
2023-05-05T07:07:34.119Z,130.9
2023-05-05T07:12:35.911Z,99.7
2023-05-05T07:17:36.795Z,84.5
2023-05-05T07:22:37.997Z,62
2023-05-05T07:27:40.690Z,61.6
2023-05-05T07:32:41.914Z,52.5
2023-05-05T07:37:42.830Z,38.8
2023-05-05T07:42:43.676Z,36.3
2023-05-05T07:47:44.634Z,52.6
2023-05-05T07:52:51.716Z,57.2
2023-05-05T07:57:57.102Z,63.9
2023-05-05T08:02:59.812Z,69.1
2023-05-05T08:08:00.795Z,63.7
2023-05-05T08:13:02.976Z,84.3
2023-05-05T08:18:04.460Z,86.7
2023-05-05T08:23:05.376Z,110.9
2023-05-05T08:28:06.258Z,111.7
2023-05-05T08:33:07.203Z,108.5
2023-05-05T08:38:08.153Z,112
2023-05-05T08:43:09.037Z,140.3
2023-05-05T08:48:12.034Z,164.8
2023-05-05T08:53:12.963Z,190.1
2023-05-05T08:58:14.024Z,221.4
2023-05-05T09:03:15.199Z,230.8
2023-05-05T09:08:16.324Z,227.7
2023-05-05T09:13:17.728Z,257.7
2023-05-05T09:18:18.682Z,260.1
2023-05-05T09:23:19.875Z,214.3
2023-05-05T09:28:21.057Z,266.8
2023-05-05T09:33:22.524Z,381.8
2023-05-05T09:38:23.444Z,380.8
2023-05-05T09:43:24.376Z,490.6
2023-05-05T09:48:25.423Z,483.8
2023-05-05T09:53:26.378Z,331.9
2023-05-05T09:58:29.528Z,283
2023-05-05T10:03:30.791Z,227.3
2023-05-05T10:08:31.778Z,208.1
2023-05-05T10:13:32.725Z,243.3
2023-05-05T10:18:34.054Z,180.6
2023-05-05T10:23:35.112Z,184
2023-05-05T10:28:35.943Z,106.1
2023-05-05T10:33:37.283Z,80.1
2023-05-05T10:43:43.883Z,99.4
2023-05-05T10:48:45.191Z,108.3
2023-05-05T10:53:46.391Z,129.1
2023-05-05T10:58:58.391Z,141
2023-05-05T11:04:01.195Z,148.7
2023-05-05T11:09:02.846Z,238
2023-05-05T11:14:03.963Z,350.9
2023-05-05T11:19:05.012Z,352
2023-05-05T11:24:06.549Z,403.3
2023-05-05T11:29:08.002Z,370.9
2023-05-05T11:34:09.032Z,415.5
2023-05-05T11:44:15.098Z,443.4
2023-05-05T11:49:16.862Z,372
2023-05-05T11:54:18.080Z,337.7
2023-05-05T11:59:19.016Z,356.9
2023-05-05T12:04:20.168Z,342.4
2023-05-05T12:09:21.545Z,327
2023-05-05T12:14:23.072Z,237.9
2023-05-05T12:19:26.693Z,237.9
2023-05-05T12:24:29.966Z,170.9
2023-05-05T12:29:33.675Z,159.6
2023-05-05T12:34:36.446Z,196.2
2023-05-05T12:39:38.626Z,266.7
2023-05-05T12:44:41.147Z,291.7
2023-05-05T12:49:43.264Z,305.3
2023-05-05T12:54:44.183Z,289.5
2023-05-05T12:59:46.445Z,294.5
2023-05-05T13:04:47.654Z,298.1
2023-05-05T13:09:51.602Z,282.9
2023-05-05T13:14:53.036Z,301.8
2023-05-05T13:19:55.246Z,268.7
2023-05-05T13:24:56.811Z,255.4
2023-05-05T13:29:58.630Z,245.5
2023-05-05T13:35:12.695Z,302.5
2023-05-05T13:40:16.714Z,322.9
2023-05-05T13:45:17.905Z,202.3
2023-05-05T13:50:23.118Z,246.7
2023-05-05T13:55:23.997Z,193.6
2023-05-05T14:00:26.066Z,170.8
2023-05-05T14:05:27.409Z,166.4
2023-05-05T14:10:29.621Z,138.8
2023-05-05T14:15:30.975Z,101.3
2023-05-05T14:20:35.416Z,88.8
2023-05-05T14:25:38.565Z,86
2023-05-05T14:30:42.015Z,93.7
2023-05-05T14:35:43.183Z,99.8
2023-05-05T14:40:44.615Z,90.4
2023-05-05T14:45:46.009Z,87.9
2023-05-05T14:50:47.701Z,81.3
2023-05-05T14:55:51.189Z,58.4
2023-05-05T15:00:54.590Z,48.7
2023-05-05T15:05:56.204Z,41.5
2023-05-05T15:10:59.228Z,33.2
2023-05-05T15:16:01.709Z,29.2
2023-05-05T15:21:02.817Z,25.9
2023-05-05T15:26:03.747Z,22.5
2023-05-05T15:31:04.727Z,20.3
2023-05-05T15:36:08.812Z,18.7
2023-05-05T15:41:10.567Z,18.3
2023-05-05T15:46:12.531Z,19.9
2023-05-05T15:51:14.315Z,18.4
2023-05-05T15:56:15.235Z,16.9
2023-05-05T16:01:16.915Z,15.9
2023-05-05T16:06:18.782Z,12.5
2023-05-05T16:11:24.035Z,12
2023-05-05T16:16:25.061Z,11.1
2023-05-05T16:21:26.413Z,7.9
2023-05-05T16:26:27.899Z,11.4
2023-05-05T16:31:29.819Z,10.1
2023-05-05T16:36:30.863Z,9.6
2023-05-05T16:41:32.070Z,9
2023-05-05T16:46:33.914Z,10.9
2023-05-05T16:51:35.198Z,18.7
2023-05-05T16:56:36.260Z,54.5
2023-05-05T17:01:37.498Z,113.3
2023-05-05T17:06:38.604Z,118.5
2023-05-05T17:11:41.740Z,107.8
2023-05-05T17:16:43.291Z,80.2
2023-05-05T17:21:44.373Z,60.9
2023-05-05T17:26:45.373Z,46.9
2023-05-05T17:31:48.328Z,43.9
2023-05-05T17:36:50.149Z,37.9
2023-05-05T17:41:51.425Z,37
2023-05-05T17:46:53.626Z,29.7
2023-05-05T17:51:54.604Z,44.8
2023-05-05T17:56:55.791Z,36.2
2023-05-05T18:01:56.744Z,33.7
2023-05-05T18:06:57.989Z,33.4
2023-05-05T18:11:59.103Z,27.3
2023-05-05T18:17:00.815Z,25.5
2023-05-05T18:22:02.061Z,22.7
2023-05-05T18:27:03.056Z,17.7
2023-05-05T18:32:04.265Z,14
2023-05-05T18:37:06.411Z,11.7
2023-05-05T18:42:07.797Z,10.2
2023-05-05T18:47:08.762Z,8.3
2023-05-05T18:52:10.186Z,7
2023-05-05T18:57:11.196Z,9.9
2023-05-05T19:02:14.006Z,8.7
2023-05-05T19:07:24.089Z,3.5
2023-05-05T19:12:35.604Z,3.5
2023-05-05T19:17:37.463Z,3.5
2023-05-05T19:22:38.493Z,3.5
2023-05-05T19:27:39.495Z,3.5
2023-05-05T19:32:42.732Z,3.5
2023-05-05T19:37:45.694Z,3.5
2023-05-05T19:42:47.388Z,3.5
2023-05-05T19:47:48.947Z,3.5
2023-05-05T19:52:51.145Z,0
2023-05-05T19:57:53.718Z,0
